Time;durP1;ratioP1;P1;durP2;ratioP2;P2;SDS_P1;SDS_P2;PMS_P1;PMS_P2;Temp;Humidity;BMP_temperature;BMP_pressure;BME280_temperature;BME280_humidity;BME280_pressure;Samples;Min_cycle;Max_cycle;Signal;HPM_P1;HPM_P2
2022/06/20 00:02:26;;;;;;;10.03;6.13;;;15.30;88.80;;;;;;5058604;28;20199;-74
2022/06/20 00:04:55;;;;;;;10.37;5.40;;;15.30;88.50;;;;;;5057377;28;20176;-75
2022/06/20 00:07:23;;;;;;;11.80;5.90;;;15.40;88.30;;;;;;5054287;28;20214;-74
2022/06/20 00:09:50;;;;;;;11.70;5.67;;;15.40;87.70;;;;;;5054134;28;20215;-75
2022/06/20 00:12:27;;;;;;;9.13;5.40;;;15.50;87.40;;;;;;5054151;28;20196;-76
2022/06/20 00:14:59;;;;;;;13.23;4.97;;;15.50;87.50;;;;;;5058845;28;20639;-72
2022/06/20 00:17:27;;;;;;;13.30;5.57;;;15.50;87.10;;;;;;5054235;28;20172;-74
2022/06/20 00:19:54;;;;;;;11.40;5.50;;;15.60;86.90;;;;;;5066074;28;20553;-73
2022/06/20 00:22:22;;;;;;;7.43;5.30;;;15.70;87.00;;;;;;5070177;28;20180;-74
2022/06/20 00:24:50;;;;;;;10.80;5.37;;;15.80;87.10;;;;;;5058423;28;20193;-74
2022/06/20 00:27:17;;;;;;;10.93;4.97;;;15.80;86.50;;;;;;5055879;28;20293;-74
2022/06/20 00:29:46;;;;;;;11.13;5.13;;;15.80;86.10;;;;;;5064058;28;20253;-74
2022/06/20 00:32:13;;;;;;;8.93;4.40;;;15.90;86.00;;;;;;5063072;28;20191;-76
2022/06/20 00:34:41;;;;;;;15.07;4.47;;;16.00;85.00;;;;;;5065566;28;20175;-75
2022/06/20 00:37:18;;;;;;;14.17;4.13;;;16.00;85.00;;;;;;5053611;28;20594;-75
2022/06/20 00:39:46;;;;;;;11.30;3.77;;;16.10;84.60;;;;;;5069512;28;20647;-74
2022/06/20 00:42:14;;;;;;;12.87;4.30;;;16.20;84.00;;;;;;5092159;28;20179;-75
2022/06/20 00:44:56;;;;;;;10.27;4.37;;;16.30;83.50;;;;;;5076159;28;20212;-76
2022/06/20 00:47:30;;;;;;;8.90;3.73;;;16.50;83.00;;;;;;5069131;28;20173;-75
2022/06/20 00:50:35;;;;;;;9.67;3.53;;;16.60;81.90;;;;;;5071359;28;20251;-75
2022/06/20 00:53:09;;;;;;;14.23;3.80;;;16.90;81.20;;;;;;5067519;28;20172;-75
2022/06/20 00:55:45;;;;;;;10.10;3.43;;;17.00;80.90;;;;;;5051482;28;20194;-75
2022/06/20 00:58:34;;;;;;;6.97;3.00;;;17.20;80.70;;;;;;5063705;28;20636;-76
2022/06/20 01:01:02;;;;;;;12.37;3.60;;;17.30;79.30;;;;;;5061208;28;20278;-75
2022/06/20 01:03:35;;;;;;;10.97;3.13;;;17.60;79.10;;;;;;5057586;28;20607;-76
2022/06/20 01:06:19;;;;;;;9.50;3.40;;;17.80;78.20;;;;;;5053021;28;20522;-76
2022/06/20 01:08:57;;;;;;;15.33;3.40;;;18.20;78.70;;;;;;5052731;28;20209;-76
2022/06/20 01:11:29;;;;;;;10.37;2.93;;;18.70;77.90;;;;;;5053609;28;20229;-76
2022/06/20 01:13:56;;;;;;;8.70;2.70;;;18.50;75.30;;;;;;5053058;28;20210;-76
2022/06/20 01:16:34;;;;;;;7.40;2.47;;;18.60;74.20;;;;;;5069243;28;20183;-76
2022/06/20 01:19:07;;;;;;;13.13;2.93;;;18.80;74.10;;;;;;5068931;28;20539;-77
2022/06/20 01:21:37;;;;;;;9.00;2.20;;;19.20;74.60;;;;;;5060463;28;20278;-76
2022/06/20 01:24:16;;;;;;;7.57;2.50;;;19.10;70.80;;;;;;5070255;28;20613;-77
2022/06/20 01:27:16;;;;;;;10.00;2.40;;;18.70;69.10;;;;;;5052790;28;20276;-76
2022/06/20 01:29:44;;;;;;;10.87;2.87;;;18.50;71.90;;;;;;5051184;28;20226;-76
2022/06/20 01:32:12;;;;;;;13.40;3.40;;;18.30;73.70;;;;;;5067206;28;20199;-77
2022/06/20 01:34:40;;;;;;;11.07;2.40;;;18.60;73.90;;;;;;5052989;28;20552;-78
2022/06/20 01:37:25;;;;;;;8.30;1.80;;;19.00;71.30;;;;;;5053854;28;20183;-77
2022/06/20 01:40:14;;;;;;;8.33;1.87;;;18.90;70.00;;;;;;5064830;28;20264;-77
2022/06/20 01:42:43;;;;;;;11.37;2.27;;;18.70;71.50;;;;;;5060984;28;20173;-77
2022/06/20 01:45:57;;;;;;;8.43;2.20;;;18.50;71.50;;;;;;5052711;28;20172;-77
2022/06/20 01:48:20;;;;;;;7.37;2.00;;;18.80;71.40;;;;;;5067051;28;20277;-77
2022/06/20 01:50:48;;;;;;;8.23;1.87;;;18.70;70.40;;;;;;5058794;28;20323;-76
2022/06/20 01:53:22;;;;;;;8.80;1.70;;;18.60;69.50;;;;;;5070839;28;20214;-77
2022/06/20 01:55:53;;;;;;;5.30;1.77;;;18.50;70.50;;;;;;5069655;28;20186;-76
2022/06/20 01:58:42;;;;;;;4.73;1.33;;;18.40;70.00;;;;;;5059023;28;20741;-77
2022/06/20 02:01:11;;;;;;;7.23;1.40;;;18.20;71.40;;;;;;5051204;28;20215;-76
2022/06/20 02:03:42;;;;;;;10.27;1.80;;;18.10;70.70;;;;;;5063816;28;20228;-76
2022/06/20 02:06:13;;;;;;;4.37;1.50;;;17.90;70.00;;;;;;5050960;28;20180;-76
2022/06/20 02:08:42;;;;;;;7.37;1.60;;;17.80;70.20;;;;;;5067251;28;20207;-76
2022/06/20 02:11:12;;;;;;;4.60;1.80;;;17.80;71.50;;;;;;5057614;28;20218;-77
2022/06/20 02:13:43;;;;;;;9.60;1.97;;;17.50;70.80;;;;;;5059408;28;20648;-76
2022/06/20 02:16:14;;;;;;;7.47;1.60;;;17.50;71.20;;;;;;5096147;28;20169;-75
2022/06/20 02:18:44;;;;;;;7.67;1.93;;;17.50;72.40;;;;;;5064971;28;20194;-76
2022/06/20 02:21:24;;;;;;;10.87;2.40;;;17.50;72.50;;;;;;5056170;28;20189;-76
2022/06/20 02:23:56;;;;;;;6.60;2.30;;;17.70;72.20;;;;;;5064120;28;20190;-75
2022/06/20 02:26:24;;;;;;;8.03;2.20;;;17.50;72.70;;;;;;5055827;28;20227;-74
2022/06/20 02:29:21;;;;;;;9.07;2.13;;;17.70;72.90;;;;;;5075793;28;20200;-75
2022/06/20 02:32:08;;;;;;;10.67;2.20;;;17.80;73.00;;;;;;5068927;28;20202;-74
2022/06/20 02:34:36;;;;;;;14.87;2.63;;;17.80;72.20;;;;;;5071061;28;20186;-75
2022/06/20 02:37:09;;;;;;;10.27;2.13;;;17.90;72.30;;;;;;5068916;28;20579;-73
2022/06/20 02:39:42;;;;;;;11.67;2.47;;;17.90;72.20;;;;;;5067010;28;20176;-74
2022/06/20 02:42:15;;;;;;;7.97;2.50;;;17.80;72.30;;;;;;5066103;28;20182;-73
2022/06/20 02:44:48;;;;;;;11.83;2.97;;;17.60;72.50;;;;;;5067939;28;20343;-74
2022/06/20 02:47:18;;;;;;;10.37;2.37;;;17.30;75.90;;;;;;5068583;28;20319;-74
2022/06/20 02:49:47;;;;;;;14.20;2.60;;;17.30;77.50;;;;;;5072030;28;20211;-73
2022/06/20 02:52:22;;;;;;;9.73;2.33;;;17.20;77.60;;;;;;5073846;28;20193;-74
2022/06/20 02:54:51;;;;;;;12.90;2.50;;;16.90;77.90;;;;;;5067331;28;20257;-74
2022/06/20 02:57:42;;;;;;;9.47;1.90;;;16.70;78.10;;;;;;5071512;28;20178;-73
2022/06/20 03:00:25;;;;;;;5.37;1.67;;;16.70;78.00;;;;;;5065612;28;20192;-73
2022/06/20 03:02:57;;;;;;;5.03;1.80;;;16.70;78.90;;;;;;5068148;28;20214;-74
2022/06/20 03:05:25;;;;;;;4.77;1.90;;;16.60;79.20;;;;;;5065885;28;20729;-75
2022/06/20 03:07:53;;;;;;;7.40;1.80;;;16.50;79.50;;;;;;5067386;28;20230;-75
2022/06/20 03:10:24;;;;;;;7.63;1.60;;;16.40;79.30;;;;;;5068402;28;20697;-75
2022/06/20 03:12:53;;;;;;;10.87;2.10;;;16.40;79.20;;;;;;5067594;28;20192;-75
2022/06/20 03:15:22;;;;;;;5.90;2.03;;;16.50;78.80;;;;;;5069868;28;20201;-73
2022/06/20 03:17:51;;;;;;;6.87;1.90;;;16.50;78.50;;;;;;5067042;28;20318;-75
2022/06/20 03:20:21;;;;;;;11.67;2.03;;;16.50;79.20;;;;;;5063147;28;20199;-74
2022/06/20 03:23:09;;;;;;;12.50;2.93;;;16.50;79.00;;;;;;5069021;28;20543;-74
2022/06/20 03:25:39;;;;;;;10.73;2.50;;;16.60;78.90;;;;;;5071424;28;20230;-75
2022/06/20 03:28:13;;;;;;;11.47;1.87;;;16.60;78.40;;;;;;5067078;28;20188;-75
2022/06/20 03:30:41;;;;;;;8.93;2.30;;;16.70;78.00;;;;;;5070600;28;20918;-75
2022/06/20 03:33:16;;;;;;;11.20;2.50;;;16.70;77.50;;;;;;5070324;28;20201;-75
2022/06/20 03:35:52;;;;;;;11.37;2.23;;;16.80;77.20;;;;;;5072738;28;20185;-75
2022/06/20 03:38:20;;;;;;;14.00;2.33;;;17.00;76.90;;;;;;5072357;28;20285;-74
2022/06/20 03:40:48;;;;;;;14.13;2.63;;;17.00;76.10;;;;;;5072756;28;20184;-74
2022/06/20 03:43:19;;;;;;;7.73;2.23;;;17.00;76.40;;;;;;5072386;28;20233;-76
2022/06/20 03:45:55;;;;;;;9.43;2.10;;;17.20;75.60;;;;;;5070817;28;20244;-74
2022/06/20 03:48:37;;;;;;;8.27;1.97;;;17.20;74.90;;;;;;5070281;28;20176;-75
2022/06/20 03:51:34;;;;;;;12.33;2.53;;;17.30;73.90;;;;;;5070343;28;20183;-75
2022/06/20 03:54:05;;;;;;;10.33;2.27;;;17.40;74.20;;;;;;5072278;28;20289;-76
2022/06/20 03:56:45;;;;;;;13.53;1.87;;;17.50;72.70;;;;;;5072794;28;20225;-75
2022/06/20 03:59:27;;;;;;;12.40;2.23;;;17.30;72.40;;;;;;5065381;28;20177;-75
2022/06/20 04:02:13;;;;;;;10.43;2.27;;;17.30;72.60;;;;;;5068839;28;20187;-75
2022/06/20 04:04:51;;;;;;;15.00;2.30;;;17.20;73.50;;;;;;5072585;28;20185;-76
2022/06/20 04:07:29;;;;;;;11.00;2.20;;;17.40;73.20;;;;;;5069269;28;20189;-76
2022/06/20 04:13:16;;;;;;;9.43;2.07;;;17.60;72.90;;;;;;5071091;28;20185;-76
2022/06/20 04:16:03;;;;;;;7.67;1.93;;;17.60;73.00;;;;;;5067962;28;20312;-75
2022/06/20 04:18:54;;;;;;;9.10;1.93;;;17.80;72.50;;;;;;5072448;28;20517;-75
2022/06/20 04:21:47;;;;;;;10.17;2.43;;;17.70;71.50;;;;;;5059039;28;20251;-74
2022/06/20 04:24:48;;;;;;;9.93;1.63;;;17.40;72.60;;;;;;5067722;28;20538;-75
2022/06/20 04:27:34;;;;;;;12.10;5.10;;;17.40;74.10;;;;;;5066380;28;20219;-76
2022/06/20 04:30:30;;;;;;;14.50;5.80;;;17.50;74.10;;;;;;5066199;28;20231;-76
2022/06/20 04:33:20;;;;;;;9.50;2.20;;;17.60;74.60;;;;;;5064969;28;20191;-74
2022/06/20 04:36:14;;;;;;;11.10;2.50;;;17.50;73.90;;;;;;5067240;28;20266;-76
2022/06/20 04:39:12;;;;;;;9.03;1.80;;;17.40;73.90;;;;;;5071925;28;20180;-75
2022/06/20 04:41:59;;;;;;;10.13;2.43;;;17.30;74.70;;;;;;5067403;28;20206;-74
2022/06/20 04:45:03;;;;;;;9.47;1.80;;;17.30;73.80;;;;;;5069693;28;20191;-75
2022/06/20 04:47:52;;;;;;;7.77;1.90;;;17.20;73.90;;;;;;5068453;28;20198;-74
2022/06/20 04:50:23;;;;;;;11.07;1.97;;;17.30;73.60;;;;;;5057342;28;20211;-74
2022/06/20 04:52:56;;;;;;;12.17;2.20;;;17.20;73.30;;;;;;5061262;28;20661;-75
2022/06/20 04:55:25;;;;;;;12.67;2.20;;;17.00;73.60;;;;;;5069189;28;20208;-76
2022/06/20 04:57:56;;;;;;;10.43;2.00;;;17.00;73.50;;;;;;5068007;28;20301;-76
2022/06/20 05:00:34;;;;;;;7.00;1.90;;;16.90;73.50;;;;;;5069776;28;20187;-75
2022/06/20 05:03:03;;;;;;;7.70;2.00;;;16.90;72.70;;;;;;5066912;28;20201;-75
2022/06/20 05:05:36;;;;;;;15.10;2.33;;;17.00;72.90;;;;;;5068402;28;20206;-75
2022/06/20 05:08:06;;;;;;;7.07;1.40;;;17.20;72.30;;;;;;5068532;28;20185;-75
2022/06/20 05:10:51;;;;;;;8.87;1.87;;;17.30;72.10;;;;;;5071564;28;20217;-75
2022/06/20 05:13:35;;;;;;;12.70;1.80;;;17.10;71.30;;;;;;5069520;28;20541;-75
2022/06/20 05:16:09;;;;;;;8.77;2.53;;;17.20;72.00;;;;;;5061178;28;20182;-75
2022/06/20 05:18:45;;;;;;;8.10;1.97;;;17.30;71.30;;;;;;5052912;28;20179;-75
2022/06/20 05:21:24;;;;;;;11.53;1.93;;;17.10;70.90;;;;;;5067595;28;20652;-76
2022/06/20 05:23:57;;;;;;;6.03;1.57;;;17.20;70.70;;;;;;5062874;28;20182;-76
2022/06/20 05:26:29;;;;;;;7.07;2.03;;;17.20;69.90;;;;;;5067199;28;20229;-77
2022/06/20 05:29:01;;;;;;;5.40;1.80;;;17.20;70.30;;;;;;5068328;28;20391;-76
2022/06/20 05:31:42;;;;;;;10.37;1.70;;;17.10;71.00;;;;;;5073236;28;20640;-76
2022/06/20 05:34:18;;;;;;;8.33;1.70;;;17.00;71.40;;;;;;5068707;28;20181;-76
2022/06/20 05:37:00;;;;;;;8.07;1.97;;;17.10;70.70;;;;;;5066584;28;20190;-76
2022/06/20 05:39:36;;;;;;;3.37;1.47;;;17.00;71.30;;;;;;5052791;28;20206;-77
2022/06/20 05:42:05;;;;;;;7.53;2.20;;;16.90;71.50;;;;;;5063630;28;20182;-75
2022/06/20 05:44:32;;;;;;;5.23;1.40;;;16.80;71.60;;;;;;5061355;28;20183;-76
2022/06/20 05:47:05;;;;;;;6.23;1.37;;;16.80;71.90;;;;;;5062820;28;20193;-76
2022/06/20 05:50:06;;;;;;;9.67;1.70;;;16.80;71.80;;;;;;5069386;28;20214;-77
2022/06/20 05:52:35;;;;;;;9.73;1.77;;;16.80;72.10;;;;;;5067621;28;20263;-76
2022/06/20 05:55:22;;;;;;;6.40;1.70;;;16.80;71.70;;;;;;5070977;28;20204;-76
2022/06/20 05:57:51;;;;;;;9.73;1.73;;;17.20;71.30;;;;;;5066808;28;20194;-78
2022/06/20 06:00:30;;;;;;;11.93;2.27;;;17.60;69.70;;;;;;5056282;28;20299;-77
2022/06/20 06:03:25;;;;;;;3.90;1.30;;;17.40;69.90;;;;;;5065568;28;20702;-77
2022/06/20 06:06:02;;;;;;;8.30;1.63;;;17.40;70.00;;;;;;5059092;28;20190;-77
2022/06/20 06:08:42;;;;;;;7.60;1.40;;;17.50;70.70;;;;;;5061827;28;20186;-76
2022/06/20 06:11:35;;;;;;;6.53;1.50;;;17.50;70.30;;;;;;5066238;28;20558;-77
2022/06/20 06:14:25;;;;;;;8.40;1.70;;;17.40;71.30;;;;;;5052214;28;20184;-76
2022/06/20 06:17:01;;;;;;;10.03;2.10;;;17.40;71.30;;;;;;5067069;28;20186;-76
2022/06/20 06:20:06;;;;;;;6.80;2.17;;;17.50;70.40;;;;;;5052276;28;20268;-77
2022/06/20 06:22:45;;;;;;;8.27;1.80;;;17.60;69.90;;;;;;5040355;28;20599;-78
2022/06/20 06:25:30;;;;;;;4.87;1.87;;;17.50;70.20;;;;;;5052512;28;20180;-78
2022/06/20 06:28:05;;;;;;;7.83;2.00;;;17.40;71.10;;;;;;5052388;28;20234;-77
2022/06/20 06:30:46;;;;;;;8.63;2.10;;;17.40;70.50;;;;;;5055136;28;20206;-77
2022/06/20 06:33:20;;;;;;;8.37;2.30;;;17.40;71.40;;;;;;5060247;28;20186;-77
2022/06/20 06:35:58;;;;;;;6.60;2.10;;;17.30;71.80;;;;;;5052005;28;20186;-76
2022/06/20 06:38:28;;;;;;;6.97;2.23;;;17.30;72.20;;;;;;5054455;28;20198;-77
2022/06/20 06:40:56;;;;;;;9.57;1.80;;;17.10;71.90;;;;;;5052253;28;20280;-77
2022/06/20 06:43:42;;;;;;;9.70;2.17;;;17.00;72.40;;;;;;5052293;28;20656;-75
2022/06/20 06:46:18;;;;;;;7.23;2.30;;;16.90;73.10;;;;;;5051971;28;20199;-78
2022/06/20 06:49:21;;;;;;;10.63;2.20;;;16.80;73.30;;;;;;5051897;28;20179;-74
2022/06/20 06:52:14;;;;;;;8.03;2.37;;;16.80;73.90;;;;;;5054998;28;20182;-75
2022/06/20 06:54:53;;;;;;;11.77;2.50;;;16.60;74.30;;;;;;5057664;28;20194;-77
2022/06/20 06:57:54;;;;;;;9.77;2.10;;;16.60;74.80;;;;;;5060545;28;20275;-76
2022/06/20 07:00:34;;;;;;;9.50;2.20;;;16.50;75.00;;;;;;5067039;28;20640;-77
2022/06/20 07:03:09;;;;;;;10.17;2.53;;;16.30;75.20;;;;;;5055579;28;20178;-76
2022/06/20 07:05:40;;;;;;;12.93;2.77;;;16.30;75.60;;;;;;5056023;28;20189;-77
2022/06/20 07:08:14;;;;;;;12.57;3.50;;;16.10;76.30;;;;;;5060707;28;20193;-77
2022/06/20 07:10:55;;;;;;;8.77;3.67;;;16.00;76.80;;;;;;5055595;28;20202;-77
2022/06/20 07:13:38;;;;;;;21.70;16.60;;;15.90;77.20;;;;;;5055288;28;20177;-77
2022/06/20 07:16:19;;;;;;;38.67;19.30;;;15.80;77.50;;;;;;5067689;28;20212;-76
2022/06/20 07:18:50;;;;;;;23.83;13.27;;;15.60;78.10;;;;;;5061577;28;20184;-77
2022/06/20 07:21:21;;;;;;;16.33;6.87;;;15.50;78.50;;;;;;5057417;28;20177;-76
2022/06/20 07:24:02;;;;;;;11.97;4.80;;;15.40;78.90;;;;;;5069638;28;20189;-76
2022/06/20 07:26:58;;;;;;;9.37;3.30;;;15.30;78.90;;;;;;5055366;28;20220;-76
2022/06/20 07:29:37;;;;;;;11.60;3.67;;;15.10;79.30;;;;;;5066231;28;20239;-76
2022/06/20 07:32:35;;;;;;;10.77;3.70;;;15.00;80.00;;;;;;5067099;28;20187;-76
2022/06/20 07:35:13;;;;;;;11.17;3.20;;;14.90;80.60;;;;;;5088489;28;20182;-76
2022/06/20 07:38:03;;;;;;;10.00;2.90;;;14.80;80.70;;;;;;5088626;28;20168;-76
2022/06/20 07:40:39;;;;;;;8.63;2.97;;;14.80;81.00;;;;;;5066395;28;20232;-76
2022/06/20 07:43:13;;;;;;;11.70;2.83;;;14.70;81.10;;;;;;5064419;28;20171;-77
2022/06/20 07:45:47;;;;;;;15.37;5.33;;;14.60;81.50;;;;;;5062523;28;20182;-75
2022/06/20 07:48:17;;;;;;;17.83;4.10;;;14.60;82.00;;;;;;5058460;28;20554;-75
2022/06/20 07:50:57;;;;;;;11.73;3.47;;;14.60;82.20;;;;;;5066761;28;20745;-75
2022/06/20 07:53:38;;;;;;;14.73;3.33;;;14.60;82.50;;;;;;5065189;28;20175;-75
2022/06/20 07:56:11;;;;;;;13.70;6.00;;;14.50;83.00;;;;;;5063413;28;20520;-76
2022/06/20 07:58:42;;;;;;;14.87;4.40;;;14.50;83.40;;;;;;5066853;28;20552;-76
2022/06/20 08:01:30;;;;;;;10.87;3.60;;;14.50;83.80;;;;;;5056880;28;20207;-76
2022/06/20 08:04:08;;;;;;;12.53;4.53;;;14.40;84.00;;;;;;5054267;28;20599;-76
2022/06/20 08:06:45;;;;;;;13.50;4.07;;;14.30;84.00;;;;;;5054324;28;20248;-75
2022/06/20 08:09:28;;;;;;;19.00;5.37;;;14.30;83.90;;;;;;5054908;28;20282;-76
2022/06/20 08:11:59;;;;;;;10.07;3.97;;;14.30;84.10;;;;;;5054498;28;20211;-77
2022/06/20 08:15:00;;;;;;;11.10;3.00;;;14.30;84.30;;;;;;5063801;28;20645;-76
2022/06/20 08:17:30;;;;;;;9.47;3.07;;;14.40;84.10;;;;;;5070018;28;20203;-76
2022/06/20 08:20:00;;;;;;;11.37;2.60;;;14.30;84.10;;;;;;5053308;28;20240;-77
2022/06/20 08:22:34;;;;;;;8.60;2.47;;;14.30;84.30;;;;;;5064523;28;20198;-76
2022/06/20 08:25:19;;;;;;;8.73;2.97;;;14.30;84.30;;;;;;5067489;28;20174;-75
2022/06/20 08:27:51;;;;;;;11.70;2.70;;;14.30;84.50;;;;;;5053947;28;20562;-76
2022/06/20 08:30:41;;;;;;;13.27;3.03;;;14.30;84.50;;;;;;5052468;28;20256;-76
2022/06/20 08:33:45;;;;;;;12.30;2.90;;;14.40;84.70;;;;;;5051615;28;20280;-77
2022/06/20 08:36:23;;;;;;;12.90;2.90;;;14.40;84.90;;;;;;5053659;28;20184;-76
2022/06/20 08:38:59;;;;;;;8.70;2.63;;;14.40;85.00;;;;;;5053743;28;20605;-76
2022/06/20 08:42:03;;;;;;;8.10;2.87;;;14.40;85.10;;;;;;5065010;28;20172;-76
2022/06/20 08:45:07;;;;;;;13.40;2.77;;;14.40;85.30;;;;;;5053418;28;20172;-76
2022/06/20 08:48:05;;;;;;;10.87;3.23;;;14.40;85.60;;;;;;5070903;28;20183;-75
2022/06/20 08:50:57;;;;;;;11.00;2.90;;;14.40;85.70;;;;;;5056197;28;20211;-77
2022/06/20 08:53:42;;;;;;;9.30;2.90;;;14.40;85.90;;;;;;5072251;28;20706;-75
2022/06/20 08:56:35;;;;;;;14.73;3.40;;;14.50;85.80;;;;;;5058851;28;20195;-75
2022/06/20 08:59:17;;;;;;;9.07;3.07;;;14.50;85.70;;;;;;5053497;28;20634;-76
2022/06/20 09:02:07;;;;;;;9.33;2.57;;;14.50;85.60;;;;;;5053484;28;20203;-76
2022/06/20 09:04:43;;;;;;;10.93;3.43;;;14.50;85.70;;;;;;5053080;28;20196;-75
2022/06/20 09:07:36;;;;;;;8.00;3.17;;;14.60;85.60;;;;;;5053200;28;20179;-75
2022/06/20 09:10:26;;;;;;;9.87;3.67;;;14.60;85.60;;;;;;5053250;28;20227;-76
2022/06/20 09:13:05;;;;;;;10.13;3.37;;;14.60;85.60;;;;;;5073434;28;20190;-76
2022/06/20 09:15:55;;;;;;;11.80;4.03;;;14.60;85.50;;;;;;5063916;28;20180;-75
2022/06/20 09:18:58;;;;;;;12.17;3.83;;;14.60;85.50;;;;;;5063495;28;20316;-76
2022/06/20 09:21:34;;;;;;;13.23;4.10;;;14.60;85.60;;;;;;5054412;28;20654;-76
2022/06/20 09:24:21;;;;;;;9.13;3.80;;;14.50;85.80;;;;;;5070900;28;20163;-76
2022/06/20 09:27:07;;;;;;;12.13;3.90;;;14.50;85.90;;;;;;5053204;28;20235;-75
2022/06/20 09:29:38;;;;;;;7.77;3.70;;;14.50;85.70;;;;;;5057073;28;20237;-76
2022/06/20 09:32:30;;;;;;;10.30;4.53;;;14.50;85.70;;;;;;5056316;28;20202;-75
2022/06/20 09:34:57;;;;;;;10.30;4.90;;;14.50;85.70;;;;;;5052971;28;20256;-75
2022/06/20 09:37:27;;;;;;;15.80;5.20;;;14.50;86.00;;;;;;5064621;28;20229;-75
2022/06/20 09:40:15;;;;;;;10.80;4.40;;;14.50;85.90;;;;;;5054167;28;20182;-76
2022/06/20 09:42:51;;;;;;;13.90;4.27;;;14.50;86.00;;;;;;5052941;28;20657;-75
2022/06/20 09:45:30;;;;;;;11.70;4.37;;;14.40;86.00;;;;;;5052135;28;20181;-75
2022/06/20 09:47:58;;;;;;;12.33;4.90;;;14.30;86.20;;;;;;5052658;28;20222;-75
2022/06/20 09:50:44;;;;;;;14.50;6.83;;;14.30;86.30;;;;;;5052258;28;20222;-76
2022/06/20 09:53:29;;;;;;;22.53;11.27;;;14.20;86.40;;;;;;5053415;28;20177;-76
2022/06/20 09:56:25;;;;;;;18.17;11.87;;;14.10;86.60;;;;;;5052822;28;20184;-76
2022/06/20 09:59:09;;;;;;;17.43;12.10;;;14.00;86.90;;;;;;5052573;28;20172;-75
2022/06/20 10:01:39;;;;;;;20.70;10.30;;;13.90;87.00;;;;;;5054592;28;20631;-75
2022/06/20 10:04:25;;;;;;;15.07;7.10;;;13.80;87.20;;;;;;5063190;28;20641;-75
2022/06/20 10:07:18;;;;;;;14.33;6.20;;;13.70;87.50;;;;;;5053852;28;20213;-75
2022/06/20 10:10:08;;;;;;;16.63;6.47;;;13.60;87.50;;;;;;5059394;28;20227;-75
2022/06/20 10:13:14;;;;;;;15.23;6.17;;;13.50;87.70;;;;;;5049806;28;20188;-75
2022/06/20 10:15:46;;;;;;;14.23;5.90;;;13.40;87.90;;;;;;5052355;28;20175;-76
2022/06/20 10:18:25;;;;;;;11.30;4.53;;;13.30;88.00;;;;;;5052132;28;20243;-75
2022/06/20 10:20:55;;;;;;;12.60;5.23;;;13.30;88.20;;;;;;5052450;28;20168;-75
2022/06/20 10:24:00;;;;;;;12.40;4.77;;;13.20;88.30;;;;;;5059456;28;20180;-75
2022/06/20 10:26:27;;;;;;;13.33;4.73;;;13.20;88.60;;;;;;5051992;28;20222;-76
2022/06/20 10:29:06;;;;;;;13.27;6.77;;;13.20;89.00;;;;;;5052332;28;20183;-75
2022/06/20 10:31:39;;;;;;;33.37;18.60;;;13.20;88.70;;;;;;5055542;28;20572;-76
2022/06/20 10:34:25;;;;;;;49.90;31.67;;;13.10;88.90;;;;;;5060280;28;20179;-76
2022/06/20 10:37:13;;;;;;;51.17;29.47;;;13.10;89.10;;;;;;5056409;28;20180;-76
2022/06/20 10:40:28;;;;;;;42.87;25.10;;;13.00;89.20;;;;;;5073388;28;20267;-76
2022/06/20 10:43:09;;;;;;;32.63;16.33;;;12.90;89.50;;;;;;5070211;28;20191;-77
2022/06/20 10:45:53;;;;;;;32.27;18.53;;;12.90;89.70;;;;;;5056377;28;20657;-77
2022/06/20 10:48:45;;;;;;;32.10;19.33;;;12.90;89.70;;;;;;5056722;28;20183;-76
2022/06/20 10:51:27;;;;;;;24.60;11.50;;;12.90;89.70;;;;;;5056807;28;20234;-76
2022/06/20 10:54:10;;;;;;;26.93;13.13;;;12.90;90.00;;;;;;5065446;28;20648;-76
2022/06/20 10:56:55;;;;;;;20.90;10.03;;;12.80;89.80;;;;;;5056119;28;20198;-76
2022/06/20 10:59:53;;;;;;;18.37;8.57;;;12.80;89.90;;;;;;5056119;28;20184;-77
2022/06/20 11:02:34;;;;;;;18.37;7.33;;;12.80;90.10;;;;;;5054272;28;20195;-76
2022/06/20 11:05:15;;;;;;;18.73;7.10;;;12.80;90.30;;;;;;5055762;28;20265;-76
2022/06/20 11:08:06;;;;;;;20.13;7.20;;;12.70;90.20;;;;;;5064288;28;20178;-77
2022/06/20 11:10:43;;;;;;;22.50;7.37;;;12.70;90.20;;;;;;5057677;28;20211;-76
2022/06/20 11:13:20;;;;;;;17.33;7.20;;;12.70;90.40;;;;;;5055799;28;20172;-77
2022/06/20 11:15:59;;;;;;;14.70;6.63;;;12.70;90.40;;;;;;5055324;28;20176;-76
2022/06/20 11:18:44;;;;;;;17.27;7.43;;;12.60;90.50;;;;;;5054725;28;20191;-76
2022/06/20 11:21:38;;;;;;;17.50;7.10;;;12.60;90.50;;;;;;5055821;28;20168;-75
2022/06/20 11:24:41;;;;;;;19.10;7.70;;;12.60;90.60;;;;;;5057642;28;20714;-76
2022/06/20 11:27:33;;;;;;;17.13;7.27;;;12.60;90.40;;;;;;5055273;28;20219;-76
2022/06/20 11:30:13;;;;;;;17.37;8.60;;;12.50;90.50;;;;;;5055083;28;20673;-76
2022/06/20 11:32:58;;;;;;;22.30;9.47;;;12.50;90.60;;;;;;5056915;28;20535;-76
2022/06/20 11:35:55;;;;;;;16.57;8.67;;;12.40;90.50;;;;;;5071145;28;20189;-75
2022/06/20 11:39:09;;;;;;;19.53;8.60;;;12.40;90.90;;;;;;5052451;28;20234;-75
2022/06/20 11:41:54;;;;;;;15.20;7.50;;;12.40;91.00;;;;;;5068546;28;20317;-75
2022/06/20 11:44:38;;;;;;;15.70;7.07;;;12.40;91.10;;;;;;5059811;28;20191;-76
2022/06/20 11:47:26;;;;;;;14.40;7.13;;;12.30;91.00;;;;;;5054435;28;20233;-75
2022/06/20 11:50:30;;;;;;;16.57;6.27;;;12.30;90.90;;;;;;5054831;28;20234;-76
2022/06/20 11:53:32;;;;;;;13.40;6.17;;;12.20;91.10;;;;;;5066824;28;20276;-76
2022/06/20 11:56:22;;;;;;;12.00;5.63;;;12.30;91.20;;;;;;5055359;28;20196;-76
2022/06/20 11:59:22;;;;;;;15.37;6.13;;;12.30;91.30;;;;;;5054441;28;20187;-75
2022/06/20 12:02:21;;;;;;;18.03;7.23;;;12.30;91.40;;;;;;5067502;28;20191;-75
2022/06/20 12:05:15;;;;;;;11.90;6.33;;;12.20;91.30;;;;;;5058724;28;20183;-76
2022/06/20 12:08:02;;;;;;;19.53;6.33;;;12.20;91.30;;;;;;5063103;28;20267;-75
2022/06/20 12:10:51;;;;;;;20.50;7.63;;;12.20;91.40;;;;;;5056682;28;20246;-76
2022/06/20 12:13:48;;;;;;;16.47;6.97;;;12.10;91.30;;;;;;5054510;28;20277;-76
2022/06/20 12:16:51;;;;;;;18.70;6.20;;;12.10;91.50;;;;;;5052905;28;20241;-76
2022/06/20 12:25:21;;;;;;;16.00;6.30;;;12.00;91.70;;;;;;5061978;28;20209;-76
2022/06/20 12:27:49;;;;;;;20.67;6.37;;;12.00;91.70;;;;;;5068197;28;20665;-76
2022/06/20 12:30:17;;;;;;;16.40;6.20;;;12.00;91.80;;;;;;5055512;28;20215;-76
2022/06/20 12:32:53;;;;;;;18.90;6.60;;;12.00;91.90;;;;;;5066197;28;20211;-77
2022/06/20 12:35:41;;;;;;;17.13;6.47;;;12.00;91.80;;;;;;5054560;28;20281;-76
2022/06/20 12:38:21;;;;;;;12.73;6.27;;;11.90;91.60;;;;;;5060271;28;20178;-75
2022/06/20 12:40:58;;;;;;;15.60;7.10;;;11.90;91.80;;;;;;5070311;28;20186;-77
2022/06/20 12:43:47;;;;;;;17.97;7.27;;;11.90;91.80;;;;;;5069521;28;20199;-76
2022/06/20 12:46:38;;;;;;;14.47;7.07;;;11.90;91.90;;;;;;5064703;28;20187;-76
2022/06/20 12:49:55;;;;;;;14.73;8.00;;;11.80;91.80;;;;;;5067932;28;20208;-76
2022/06/20 12:52:48;;;;;;;13.33;6.80;;;11.80;91.90;;;;;;5055542;28;20199;-76
2022/06/20 12:55:45;;;;;;;15.57;6.80;;;11.80;91.90;;;;;;5059447;28;20586;-76
2022/06/20 12:58:34;;;;;;;15.30;8.03;;;11.70;91.80;;;;;;5063588;28;20183;-76
2022/06/20 13:01:25;;;;;;;15.87;6.97;;;11.70;92.10;;;;;;5065137;28;20277;-76
2022/06/20 13:04:05;;;;;;;17.87;8.03;;;11.70;92.00;;;;;;5053614;28;20179;-76
2022/06/20 13:06:41;;;;;;;16.10;7.83;;;11.70;92.00;;;;;;5053433;28;20184;-76
2022/06/20 13:09:46;;;;;;;15.57;8.20;;;11.70;92.10;;;;;;5061159;28;20221;-75
2022/06/20 13:12:20;;;;;;;22.50;8.60;;;11.70;92.20;;;;;;5072522;28;20213;-76
2022/06/20 13:15:25;;;;;;;18.30;6.93;;;11.70;92.10;;;;;;5053505;28;20317;-76
2022/06/20 13:18:01;;;;;;;17.67;7.70;;;11.70;92.10;;;;;;5069195;28;20187;-75
2022/06/20 13:20:40;;;;;;;17.00;6.67;;;11.50;91.90;;;;;;5060928;28;20187;-76
2022/06/20 13:23:34;;;;;;;13.10;7.33;;;11.60;92.10;;;;;;5061232;28;20183;-75
2022/06/20 13:26:11;;;;;;;13.33;8.00;;;11.50;92.00;;;;;;5053392;28;20285;-76
2022/06/20 13:29:15;;;;;;;16.97;8.93;;;11.50;92.00;;;;;;5053167;28;20673;-75
2022/06/20 13:31:50;;;;;;;23.77;10.00;;;11.40;91.90;;;;;;5052934;28;20654;-76
2022/06/20 13:34:36;;;;;;;23.47;9.97;;;11.30;92.10;;;;;;5064597;28;20252;-76
2022/06/20 13:37:35;;;;;;;20.83;9.23;;;11.30;92.30;;;;;;5052997;28;20190;-76
2022/06/20 13:40:30;;;;;;;24.73;10.53;;;11.40;92.60;;;;;;5052855;28;20171;-76
2022/06/20 13:43:14;;;;;;;21.97;11.00;;;11.40;92.30;;;;;;5052989;28;20181;-76
2022/06/20 13:46:01;;;;;;;21.40;10.03;;;11.40;92.30;;;;;;5058473;28;20228;-76
2022/06/20 13:48:44;;;;;;;20.23;10.13;;;11.40;92.50;;;;;;5053796;28;20187;-76
2022/06/20 13:51:26;;;;;;;24.03;10.23;;;11.40;92.40;;;;;;5057994;28;20240;-76
2022/06/20 13:53:57;;;;;;;25.60;10.87;;;11.40;92.50;;;;;;5065740;28;20179;-76
2022/06/20 13:57:04;;;;;;;21.17;10.73;;;11.40;92.70;;;;;;5052295;28;20194;-76
2022/06/20 13:59:58;;;;;;;20.07;11.00;;;11.40;92.70;;;;;;5060835;28;20202;-76